Time;durP1;ratioP1;P1;durP2;ratioP2;P2;SDS_P1;SDS_P2;PMS_P1;PMS_P2;Temp;Humidity;BMP_temperature;BMP_pressure;BME280_temperature;BME280_humidity;BME280_pressure;Samples;Min_cycle;Max_cycle;Signal;HPM_P1;HPM_P2
2021/05/08 00:01:24;;;;;;;9.20;7.50;;;;;;;5.08;78.59;96482.38;6159437;23;20476;-85
2021/05/08 00:03:50;;;;;;;8.57;6.70;;;;;;;5.08;78.42;96482.38;6159175;23;20419;-86
2021/05/08 00:06:16;;;;;;;11.93;7.17;;;;;;;5.04;78.89;96479.25;6158803;23;20448;-85
2021/05/08 00:08:42;;;;;;;10.17;7.40;;;;;;;4.99;79.45;96488.03;6158567;23;20438;-85
2021/05/08 00:11:08;;;;;;;9.47;7.90;;;;;;;4.97;79.70;96487.81;6158647;23;20397;-86
2021/05/08 00:13:35;;;;;;;12.70;8.07;;;;;;;4.99;79.83;96493.38;6158493;23;20539;-85
2021/05/08 00:16:01;;;;;;;11.20;7.63;;;;;;;4.93;79.47;96484.69;6159078;23;20809;-86
2021/05/08 00:18:27;;;;;;;9.37;7.07;;;;;;;4.88;80.39;96487.41;6159378;23;20559;-85
2021/05/08 00:20:53;;;;;;;9.40;7.37;;;;;;;4.79;80.73;96485.78;6159178;23;20411;-86
2021/05/08 00:23:19;;;;;;;12.57;7.50;;;;;;;4.71;81.47;96484.84;6159030;23;20981;-86
2021/05/08 00:25:45;;;;;;;9.60;7.23;;;;;;;4.73;81.53;96480.47;6158607;23;20431;-86
2021/05/08 00:28:12;;;;;;;10.03;7.50;;;;;;;4.76;81.86;96489.47;6159648;23;20488;-86
2021/05/08 00:30:38;;;;;;;14.73;8.10;;;;;;;4.71;81.65;96482.19;6159235;23;20981;-86
2021/05/08 00:33:05;;;;;;;13.93;8.50;;;;;;;4.66;81.75;96488.31;6164923;23;20480;-86
2021/05/08 00:35:31;;;;;;;9.83;7.13;;;;;;;4.67;81.85;96481.72;6158795;23;21037;-86
2021/05/08 00:37:57;;;;;;;10.20;7.20;;;;;;;4.65;81.88;96487.56;6159149;23;20551;-86
2021/05/08 00:40:23;;;;;;;11.40;8.23;;;;;;;4.59;82.09;96483.50;6159155;23;20447;-86
2021/05/08 00:42:49;;;;;;;9.07;6.77;;;;;;;4.57;81.67;96481.34;6158911;23;20527;-85
2021/05/08 00:45:15;;;;;;;8.50;6.47;;;;;;;4.57;81.83;96481.34;6158725;23;20475;-86
2021/05/08 00:47:47;;;;;;;13.17;7.73;;;;;;;4.55;82.09;96481.09;6158647;23;20407;-86
2021/05/08 00:50:16;;;;;;;10.87;8.17;;;;;;;4.52;82.46;96476.00;6159306;23;20417;-85
2021/05/08 00:52:42;;;;;;;7.93;7.20;;;;;;;4.48;82.62;96478.22;6158629;23;20411;-86
2021/05/08 00:55:08;;;;;;;7.93;6.80;;;;;;;4.48;82.60;96470.94;6158758;23;20954;-86
2021/05/08 00:57:35;;;;;;;10.77;7.40;;;;;;;4.44;82.55;96475.09;6159015;23;20963;-85
2021/05/08 01:00:01;;;;;;;10.77;8.80;;;;;;;4.43;82.94;96482.38;6159328;23;20470;-86
2021/05/08 01:02:27;;;;;;;12.70;9.10;;;;;;;4.39;83.13;96481.91;6159075;23;20501;-85
2021/05/08 01:04:54;;;;;;;11.67;7.83;;;;;;;4.41;83.33;96474.16;6158818;23;20398;-85
2021/05/08 01:07:21;;;;;;;10.73;8.40;;;;;;;4.33;83.54;96481.22;6158036;23;20448;-85
2021/05/08 01:09:47;;;;;;;11.73;8.37;;;;;;;4.28;84.06;96474.72;6159155;23;20760;-85
2021/05/08 01:12:14;;;;;;;11.70;7.53;;;;;;;4.34;83.91;96485.34;6158505;23;20459;-86
2021/05/08 01:14:40;;;;;;;12.40;8.40;;;;;;;4.34;84.21;96488.03;6158679;23;20494;-86
2021/05/08 01:17:06;;;;;;;9.80;8.03;;;;;;;4.31;84.27;96484.41;6158665;23;20473;-86
2021/05/08 01:19:33;;;;;;;12.30;7.87;;;;;;;4.28;84.18;96479.31;6158724;23;20539;-86
2021/05/08 01:22:00;;;;;;;14.40;8.37;;;;;;;4.25;84.54;96483.72;6158493;23;20476;-85
2021/05/08 01:24:26;;;;;;;12.10;8.37;;;;;;;4.26;84.56;96481.78;6158352;23;20596;-85
2021/05/08 01:26:52;;;;;;;8.10;7.10;;;;;;;4.27;84.38;96478.59;6157943;23;20449;-85
2021/05/08 01:29:19;;;;;;;12.03;8.00;;;;;;;4.27;84.52;96480.53;6158143;23;20974;-85
2021/05/08 01:31:45;;;;;;;10.33;8.80;;;;;;;4.25;84.53;96478.38;6158495;23;20966;-86
2021/05/08 01:34:11;;;;;;;10.53;8.00;;;;;;;4.21;85.04;96472.56;6157738;23;20393;-86
2021/05/08 01:36:38;;;;;;;11.20;8.83;;;;;;;4.22;84.85;96474.03;6157397;23;20453;-86
2021/05/08 01:39:06;;;;;;;12.17;7.90;;;;;;;4.21;84.77;96464.56;6158654;23;20379;-86
2021/05/08 01:41:32;;;;;;;10.60;7.80;;;;;;;4.18;84.75;96470.88;6158405;23;20491;-86
2021/05/08 01:43:58;;;;;;;10.40;8.43;;;;;;;4.14;85.10;96470.41;6157441;23;20444;-86
2021/05/08 01:46:24;;;;;;;12.50;8.10;;;;;;;4.12;85.30;96466.78;6158213;23;20487;-86
2021/05/08 01:48:50;;;;;;;11.50;8.80;;;;;;;4.13;85.31;96457.56;6177329;23;20428;-86
2021/05/08 01:51:17;;;;;;;8.90;7.50;;;;;;;4.06;85.69;96461.47;6183236;23;20409;-85
2021/05/08 01:53:43;;;;;;;13.73;8.67;;;;;;;4.00;86.01;96460.78;6183266;23;20404;-85
2021/05/08 01:56:10;;;;;;;11.90;8.80;;;;;;;3.98;86.09;96460.53;6182277;23;20428;-85
2021/05/08 01:58:36;;;;;;;13.73;9.90;;;;;;;3.88;87.02;96451.38;6176910;23;20394;-86
2021/05/08 02:01:03;;;;;;;13.27;9.00;;;;;;;3.83;86.85;96462.78;6160415;23;20440;-86
2021/05/08 02:03:30;;;;;;;14.47;8.73;;;;;;;3.93;86.83;96453.28;6160426;23;20535;-86
2021/05/08 02:05:56;;;;;;;12.30;8.90;;;;;;;3.88;86.44;96448.00;6160556;23;20396;-86
2021/05/08 02:08:22;;;;;;;11.90;8.27;;;;;;;3.92;85.51;96451.09;6159899;23;20472;-86
2021/05/08 02:10:48;;;;;;;10.33;7.57;;;;;;;3.96;84.87;96438.97;6160051;23;20427;-86
2021/05/08 02:13:15;;;;;;;11.00;7.33;;;;;;;3.92;84.21;96449.16;6159342;23;21006;-86
2021/05/08 02:15:42;;;;;;;11.07;7.27;;;;;;;3.81;84.39;96443.91;6159816;23;20492;-86
2021/05/08 02:18:08;;;;;;;10.07;7.70;;;;;;;3.77;84.42;96435.41;6159752;23;20492;-87
2021/05/08 02:20:37;;;;;;;11.43;6.93;;;;;;;3.78;84.22;96439.53;6159423;23;20950;-87
2021/05/08 02:23:06;;;;;;;9.10;7.40;;;;;;;3.81;83.87;96438.56;6159543;23;20748;-85
2021/05/08 02:25:33;;;;;;;9.13;6.63;;;;;;;3.78;83.42;96436.88;6160174;23;20425;-85
2021/05/08 02:27:59;;;;;;;13.13;7.30;;;;;;;3.72;83.45;96438.84;6160069;23;20405;-86
2021/05/08 02:30:28;;;;;;;12.97;7.27;;;;;;;3.71;83.78;96443.44;6160257;23;20443;-85
2021/05/08 02:32:55;;;;;;;9.67;6.40;;;;;;;3.68;84.02;96433.75;6160022;23;20480;-84
2021/05/08 02:35:22;;;;;;;7.60;6.30;;;;;;;3.75;83.76;96430.59;6160102;23;20475;-85
2021/05/08 02:37:49;;;;;;;9.57;6.43;;;;;;;3.66;84.05;96438.88;6160242;23;20488;-85
2021/05/08 02:40:17;;;;;;;9.40;7.07;;;;;;;3.55;84.46;96433.56;6160683;23;20405;-86
2021/05/08 02:42:43;;;;;;;10.93;6.80;;;;;;;3.54;84.82;96429.44;6158317;23;20535;-85
2021/05/08 02:45:11;;;;;;;11.13;7.17;;;;;;;3.44;85.72;96438.22;6159774;23;20471;-85
2021/05/08 02:47:39;;;;;;;10.70;7.83;;;;;;;3.43;86.21;96434.09;6160454;23;20498;-84
2021/05/08 02:50:07;;;;;;;9.53;7.40;;;;;;;3.38;86.55;96432.91;6159355;23;20856;-84
2021/05/08 02:52:34;;;;;;;11.57;7.57;;;;;;;3.35;86.90;96428.56;6160224;23;20536;-85
2021/05/08 02:55:00;;;;;;;12.03;7.57;;;;;;;3.34;87.32;96431.72;6159720;23;20405;-85
2021/05/08 02:57:26;;;;;;;11.80;6.87;;;;;;;3.34;87.57;96423.72;6160145;23;20466;-85
2021/05/08 02:59:52;;;;;;;10.03;7.20;;;;;;;3.27;87.56;96418.88;6159873;23;20440;-85
2021/05/08 03:02:18;;;;;;;8.87;6.67;;;;;;;3.21;87.50;96430.28;6159817;23;20480;-85
2021/05/08 03:04:45;;;;;;;12.00;7.53;;;;;;;3.23;87.83;96427.13;6159905;23;20969;-86
2021/05/08 03:07:11;;;;;;;8.27;7.27;;;;;;;3.23;87.68;96427.84;6160008;23;20483;-85
2021/05/08 03:09:38;;;;;;;12.30;7.77;;;;;;;3.26;87.61;96426.13;6159877;23;20393;-85
2021/05/08 03:12:05;;;;;;;9.70;7.17;;;;;;;3.19;87.61;96427.41;6159896;23;20412;-84
2021/05/08 03:14:31;;;;;;;8.83;6.80;;;;;;;3.18;87.31;96427.88;6159230;23;20484;-85
2021/05/08 03:16:58;;;;;;;9.80;7.80;;;;;;;3.13;87.67;96416.00;6159556;23;20428;-85
2021/05/08 03:19:24;;;;;;;7.47;6.47;;;;;;;3.23;87.41;96413.78;6159656;23;20409;-86
2021/05/08 03:21:52;;;;;;;7.30;6.27;;;;;;;3.14;87.53;96412.13;6159523;23;20452;-85
2021/05/08 03:24:18;;;;;;;7.80;6.03;;;;;;;3.11;87.51;96423.75;6160449;23;20496;-85
2021/05/08 03:26:44;;;;;;;10.43;6.83;;;;;;;3.15;87.37;96426.19;6160059;23;20429;-86
2021/05/08 03:29:10;;;;;;;10.17;6.80;;;;;;;3.12;86.87;96425.22;6171083;23;20412;-85
2021/05/08 03:31:36;;;;;;;14.63;6.70;;;;;;;3.15;86.97;96416.25;6184144;23;20385;-85
2021/05/08 03:34:03;;;;;;;16.60;6.80;;;;;;;3.18;86.84;96404.59;6184460;23;20356;-85
2021/05/08 03:36:29;;;;;;;10.10;6.33;;;;;;;3.16;86.70;96406.31;6172935;23;20448;-86
2021/05/08 03:38:56;;;;;;;8.83;5.70;;;;;;;3.20;86.66;96406.78;6161309;23;20734;-86
2021/05/08 03:41:23;;;;;;;7.67;6.17;;;;;;;3.16;86.59;96412.34;6160800;23;20401;-86
2021/05/08 03:43:49;;;;;;;9.30;5.83;;;;;;;3.15;86.60;96418.19;6161232;23;20518;-86
2021/05/08 03:46:15;;;;;;;9.60;6.10;;;;;;;3.19;86.28;96416.72;6161127;23;20512;-86
2021/05/08 03:48:42;;;;;;;9.53;6.10;;;;;;;3.21;86.65;96406.28;6161149;23;20945;-85
2021/05/08 03:51:08;;;;;;;7.73;6.20;;;;;;;3.31;86.41;96414.75;6161109;23;20412;-85
2021/05/08 03:53:34;;;;;;;12.23;6.23;;;;;;;3.34;86.27;96423.72;6160276;23;20405;-84
2021/05/08 03:56:02;;;;;;;9.67;6.83;;;;;;;3.38;85.44;96416.19;6160986;23;20456;-85
2021/05/08 03:58:29;;;;;;;12.23;7.07;;;;;;;3.46;85.48;96419.78;6161998;23;20423;-84
2021/05/08 04:00:56;;;;;;;7.47;6.00;;;;;;;3.57;85.23;96417.78;6162087;23;20405;-85
2021/05/08 04:03:22;;;;;;;8.77;6.20;;;;;;;3.61;84.09;96418.25;6162595;23;20498;-85
2021/05/08 04:05:48;;;;;;;13.93;6.80;;;;;;;3.57;84.22;96417.78;6161746;23;20963;-85
2021/05/08 04:08:15;;;;;;;7.70;5.40;;;;;;;3.65;84.69;96418.00;6162803;23;20472;-85
2021/05/08 04:10:41;;;;;;;7.87;6.20;;;;;;;3.97;84.44;96410.34;6162787;23;20439;-85
2021/05/08 04:13:08;;;;;;;11.00;7.33;;;;;;;4.39;83.23;96420.47;6162911;23;20989;-85
2021/05/08 04:15:34;;;;;;;7.03;5.50;;;;;;;4.80;79.58;96410.44;6163588;23;20444;-85
2021/05/08 04:18:00;;;;;;;7.67;5.37;;;;;;;5.11;78.78;96421.81;6166709;23;20439;-85
2021/05/08 04:20:26;;;;;;;9.90;6.17;;;;;;;5.48;76.69;96413.16;6168342;23;20412;-85
2021/05/08 04:22:52;;;;;;;8.00;5.40;;;;;;;5.90;74.64;96415.09;6177627;23;20495;-85
2021/05/08 04:25:18;;;;;;;9.97;6.40;;;;;;;6.39;73.88;96410.28;6160383;23;20410;-86
2021/05/08 04:27:44;;;;;;;7.23;5.10;;;;;;;6.70;71.67;96411.50;6161200;23;20470;-86
2021/05/08 04:30:13;;;;;;;6.17;5.00;;;;;;;7.09;69.70;96413.50;6160766;23;20496;-85
2021/05/08 04:32:39;;;;;;;7.77;5.97;;;;;;;7.51;68.21;96415.88;6161109;23;20436;-86
2021/05/08 04:35:06;;;;;;;8.73;5.77;;;;;;;7.84;66.83;96419.13;6160508;23;20431;-86
2021/05/08 04:37:32;;;;;;;7.03;5.50;;;;;;;8.01;65.73;96416.81;6161189;23;20403;-85
2021/05/08 04:39:58;;;;;;;7.73;4.60;;;;;;;8.25;64.42;96421.91;6181618;23;20412;-85
2021/05/08 04:42:24;;;;;;;7.40;4.90;;;;;;;8.31;63.79;96416.44;6183635;23;20473;-85
2021/05/08 04:44:50;;;;;;;10.00;5.43;;;;;;;8.44;63.68;96419.78;6183552;23;20372;-85
2021/05/08 04:47:20;;;;;;;5.97;4.70;;;;;;;8.33;63.97;96419.34;6176600;23;20440;-86
2021/05/08 04:49:46;;;;;;;9.07;5.10;;;;;;;8.48;63.27;96420.19;6161376;23;20397;-86
2021/05/08 04:52:12;;;;;;;7.53;4.40;;;;;;;8.56;62.96;96418.28;6160408;23;20762;-85
2021/05/08 04:54:39;;;;;;;7.47;4.93;;;;;;;8.77;62.33;96414.88;6160604;23;20430;-85
2021/05/08 04:57:05;;;;;;;8.83;5.13;;;;;;;9.06;61.53;96402.88;6160569;23;20432;-86
2021/05/08 04:59:31;;;;;;;8.63;5.90;;;;;;;9.14;61.22;96417.13;6158952;23;20514;-85
2021/05/08 05:01:57;;;;;;;5.40;4.90;;;;;;;9.67;60.05;96423.53;6159442;23;20428;-85
2021/05/08 05:04:24;;;;;;;5.20;4.50;;;;;;;9.43;60.25;96421.25;6160431;23;20379;-85
2021/05/08 05:06:50;;;;;;;6.83;4.80;;;;;;;9.82;59.38;96422.16;6158879;23;20833;-85
2021/05/08 05:09:16;;;;;;;6.97;5.03;;;;;;;9.87;58.81;96423.94;6160113;23;20397;-86
2021/05/08 05:11:42;;;;;;;7.63;5.17;;;;;;;10.10;58.51;96419.38;6159985;23;20434;-86
2021/05/08 05:14:08;;;;;;;9.80;5.10;;;;;;;10.34;56.70;96429.69;6159887;23;20510;-86
2021/05/08 05:16:34;;;;;;;6.20;5.00;;;;;;;10.22;57.55;96425.91;6160045;23;20499;-86
2021/05/08 05:19:00;;;;;;;8.17;5.53;;;;;;;10.44;56.30;96425.22;6160400;23;20494;-86
2021/05/08 05:21:27;;;;;;;5.90;5.13;;;;;;;11.13;54.94;96432.09;6172680;23;20432;-86
2021/05/08 05:23:53;;;;;;;9.47;6.47;;;;;;;11.68;53.49;96434.88;6160013;23;20882;-86
2021/05/08 05:26:19;;;;;;;6.60;4.97;;;;;;;11.89;52.94;96437.34;6158304;23;20433;-85
2021/05/08 05:28:45;;;;;;;6.30;5.47;;;;;;;12.17;51.74;96433.63;6159129;23;20460;-86
2021/05/08 05:31:12;;;;;;;6.10;5.03;;;;;;;12.24;51.33;96428.19;6159684;23;20487;-84
2021/05/08 05:33:38;;;;;;;13.90;6.10;;;;;;;12.39;51.08;96440.91;6160351;23;20780;-84
2021/05/08 05:36:04;;;;;;;7.90;5.00;;;;;;;12.79;50.65;96457.81;6161233;23;20840;-84
2021/05/08 05:38:31;;;;;;;6.67;5.60;;;;;;;13.04;49.32;96454.34;6161488;23;20440;-86
2021/05/08 05:40:57;;;;;;;6.83;5.50;;;;;;;13.19;48.71;96448.84;6160606;23;20404;-85
2021/05/08 05:43:24;;;;;;;13.90;5.80;;;;;;;13.21;48.36;96454.44;6161112;23;20471;-86
2021/05/08 05:45:50;;;;;;;7.30;5.37;;;;;;;13.62;46.77;96450.97;6160991;23;20445;-86
2021/05/08 05:48:16;;;;;;;5.13;4.63;;;;;;;13.98;46.15;96447.69;6160912;23;20401;-85
2021/05/08 05:50:43;;;;;;;8.00;4.63;;;;;;;14.22;45.79;96454.28;6161033;23;20415;-85
2021/05/08 05:53:10;;;;;;;9.67;4.90;;;;;;;14.50;44.90;96455.75;6160992;23;20780;-85
2021/05/08 05:55:36;;;;;;;6.63;4.60;;;;;;;14.81;43.82;96449.31;6161501;23;20408;-85
2021/05/08 05:58:03;;;;;;;4.63;4.07;;;;;;;14.52;44.18;96453.91;6160988;23;20852;-85
2021/05/08 06:00:29;;;;;;;5.57;5.00;;;;;;;14.69;43.45;96450.41;6161266;23;20800;-86
2021/05/08 06:02:55;;;;;;;8.53;5.13;;;;;;;15.07;42.79;96449.84;6160654;23;20536;-86
2021/05/08 06:05:21;;;;;;;6.93;4.90;;;;;;;14.75;43.42;96438.00;6162031;23;20452;-85
2021/05/08 06:07:47;;;;;;;5.73;4.20;;;;;;;15.15;42.18;96439.56;6160693;23;20917;-84
2021/05/08 06:10:14;;;;;;;8.13;5.30;;;;;;;14.97;41.78;96445.06;6174902;23;20436;-85
2021/05/08 06:12:41;;;;;;;5.10;4.60;;;;;;;14.77;42.54;96445.56;6183212;23;20421;-86
2021/05/08 06:15:10;;;;;;;4.50;4.03;;;;;;;14.99;42.37;96444.50;6179028;23;20464;-85
2021/05/08 06:17:37;;;;;;;5.93;4.30;;;;;;;14.75;43.10;96443.44;6137318;23;20499;-86
2021/05/08 06:20:05;;;;;;;6.13;4.77;;;;;;;14.91;42.48;96449.38;6168462;23;20432;-86
2021/05/08 06:22:31;;;;;;;4.30;3.90;;;;;;;14.70;42.06;96449.84;6166364;23;20463;-86
2021/05/08 06:24:57;;;;;;;6.00;4.77;;;;;;;14.81;41.98;96451.31;6160959;23;20780;-85
2021/05/08 06:27:23;;;;;;;6.70;4.60;;;;;;;14.20;43.50;96446.69;6160951;23;20479;-86
2021/05/08 06:29:51;;;;;;;6.10;5.37;;;;;;;14.60;43.66;96451.78;6160039;23;20409;-87
2021/05/08 06:32:17;;;;;;;5.80;4.73;;;;;;;14.93;43.09;96452.94;6162259;23;20488;-87
2021/05/08 06:34:43;;;;;;;6.90;4.67;;;;;;;15.13;43.23;96450.28;6160592;23;20400;-86
2021/05/08 06:37:09;;;;;;;6.07;4.13;;;;;;;15.39;42.24;96452.19;6160278;23;20474;-85
2021/05/08 06:39:35;;;;;;;6.17;5.17;;;;;;;16.00;40.10;96462.72;6159438;23;20413;-86
2021/05/08 06:42:02;;;;;;;6.40;4.10;;;;;;;16.12;39.43;96455.41;6159930;23;20920;-85
2021/05/08 06:44:28;;;;;;;7.53;4.20;;;;;;;16.35;39.34;96460.38;6159680;23;20786;-86
2021/05/08 06:46:55;;;;;;;4.77;4.23;;;;;;;16.75;38.62;96462.44;6158299;23;20478;-86
2021/05/08 06:49:21;;;;;;;6.33;4.30;;;;;;;16.42;39.30;96457.50;6161450;23;20400;-86
2021/05/08 06:51:48;;;;;;;7.17;4.13;;;;;;;16.86;38.68;96467.28;6160465;23;20506;-86
2021/05/08 06:54:14;;;;;;;5.93;4.27;;;;;;;16.98;38.84;96468.09;6160033;23;20488;-87
2021/05/08 06:56:41;;;;;;;6.73;4.70;;;;;;;16.58;38.53;96464.06;6160663;23;20991;-87
2021/05/08 06:59:07;;;;;;;4.83;4.00;;;;;;;16.79;38.60;96460.69;6164963;23;20437;-86
2021/05/08 07:01:33;;;;;;;4.03;3.70;;;;;;;16.84;38.41;96451.50;6163776;23;20439;-87
2021/05/08 07:04:00;;;;;;;5.47;4.00;;;;;;;16.74;38.05;96450.09;6161174;23;20527;-86
2021/05/08 07:06:26;;;;;;;6.10;4.40;;;;;;;17.07;37.55;96443.50;6160168;23;21033;-85
2021/05/08 07:08:52;;;;;;;5.97;3.50;;;;;;;16.84;38.08;96434.44;6159637;23;20432;-86
2021/05/08 07:11:19;;;;;;;3.87;3.57;;;;;;;16.73;38.26;96438.50;6160172;23;20409;-87
2021/05/08 07:13:45;;;;;;;6.33;4.33;;;;;;;16.89;38.24;96442.31;6160366;23;20440;-86
2021/05/08 07:16:12;;;;;;;4.30;3.83;;;;;;;17.19;38.30;96435.41;6160225;23;20430;-86
2021/05/08 07:18:38;;;;;;;4.40;4.03;;;;;;;16.98;38.88;96427.19;6158894;23;20401;-86
2021/05/08 07:21:05;;;;;;;4.50;4.00;;;;;;;16.83;39.16;96424.81;6160337;23;20514;-85
2021/05/08 07:23:31;;;;;;;5.33;4.40;;;;;;;16.61;39.53;96429.50;6161145;23;20535;-86
2021/05/08 07:25:57;;;;;;;7.87;4.83;;;;;;;16.91;40.01;96425.38;6160254;23;20421;-86
2021/05/08 07:28:24;;;;;;;4.63;3.83;;;;;;;17.76;38.17;96434.31;6160062;23;20412;-85
2021/05/08 07:30:52;;;;;;;5.43;4.67;;;;;;;17.64;37.83;96428.09;6161704;23;20747;-86
2021/05/08 07:33:19;;;;;;;4.33;3.83;;;;;;;17.29;39.05;96427.88;6161386;23;20397;-86
2021/05/08 07:35:46;;;;;;;4.67;4.20;;;;;;;17.42;38.63;96440.28;6160531;23;20417;-85
2021/05/08 07:38:14;;;;;;;6.53;4.60;;;;;;;17.38;39.29;96442.78;6161840;23;20479;-86
2021/05/08 07:40:40;;;;;;;6.57;4.80;;;;;;;17.29;39.37;96444.25;6172866;23;20459;-87
2021/05/08 07:43:07;;;;;;;7.80;4.00;;;;;;;17.50;38.95;96440.81;6160739;23;20424;-85
2021/05/08 07:45:34;;;;;;;4.57;3.80;;;;;;;17.54;38.91;96436.31;6160516;23;20456;-86
2021/05/08 07:48:00;;;;;;;7.13;3.90;;;;;;;17.67;39.18;96435.84;6159887;23;20405;-85
2021/05/08 07:50:27;;;;;;;6.00;4.07;;;;;;;17.45;39.74;96428.19;6160306;23;20389;-86
2021/05/08 07:52:54;;;;;;;6.57;4.30;;;;;;;17.55;39.15;96428.88;6160705;23;20478;-85
2021/05/08 07:55:22;;;;;;;5.30;4.37;;;;;;;17.50;39.33;96432.63;6160067;23;20880;-84
2021/05/08 07:57:48;;;;;;;4.33;3.93;;;;;;;17.44;39.41;96432.25;6159847;23;20922;-85
2021/05/08 08:00:16;;;;;;;5.63;4.07;;;;;;;17.41;38.80;96425.94;6161614;23;20405;-85
2021/05/08 08:02:42;;;;;;;4.37;3.63;;;;;;;16.81;41.11;96425.41;6160997;23;20528;-85
2021/05/08 08:05:10;;;;;;;4.20;3.80;;;;;;;16.96;41.38;96432.50;6161094;23;20729;-84
2021/05/08 08:07:36;;;;;;;6.10;4.30;;;;;;;16.92;41.20;96430.22;6162638;23;20413;-86
2021/05/08 08:10:03;;;;;;;6.00;3.83;;;;;;;17.10;41.46;96433.47;6160893;23;20571;-84
2021/05/08 08:12:30;;;;;;;3.90;3.50;;;;;;;17.72;40.19;96436.81;6160133;23;20495;-85
2021/05/08 08:14:56;;;;;;;5.30;3.57;;;;;;;17.89;39.87;96441.25;6160556;23;20438;-86
2021/05/08 08:17:22;;;;;;;6.40;4.23;;;;;;;18.07;39.37;96437.66;6160675;23;20450;-87
2021/05/08 08:19:50;;;;;;;6.07;4.07;;;;;;;17.69;40.26;96440.00;6162071;23;20413;-86
2021/05/08 08:22:16;;;;;;;4.70;3.80;;;;;;;17.62;40.12;96442.34;6159499;23;20416;-86
2021/05/08 08:24:43;;;;;;;6.63;4.37;;;;;;;18.00;39.65;96437.88;6160882;23;20479;-85
2021/05/08 08:27:09;;;;;;;5.40;4.10;;;;;;;18.14;39.37;96442.19;6159086;23;20484;-86
2021/05/08 08:29:36;;;;;;;5.93;3.60;;;;;;;18.52;38.97;96437.66;6160539;23;20401;-87
2021/05/08 08:32:03;;;;;;;4.27;3.87;;;;;;;18.33;38.57;96440.56;6162409;23;20440;-86
2021/05/08 08:34:29;;;;;;;3.40;3.10;;;;;;;18.27;39.41;96448.41;6162620;23;20435;-85
2021/05/08 08:36:55;;;;;;;8.00;4.07;;;;;;;18.57;38.19;96450.28;6162394;23;20468;-86
2021/05/08 08:39:21;;;;;;;6.70;4.17;;;;;;;18.34;38.16;96436.53;6162060;23;20480;-86
2021/05/08 08:41:47;;;;;;;5.00;4.07;;;;;;;18.38;38.72;96442.25;6159900;23;20441;-87
2021/05/08 08:44:13;;;;;;;7.03;3.40;;;;;;;17.94;39.06;96437.50;6158616;23;20446;-86
2021/05/08 08:46:42;;;;;;;5.23;3.50;;;;;;;17.61;39.33;96429.28;6160307;23;20512;-85
2021/05/08 08:49:09;;;;;;;4.63;3.20;;;;;;;17.63;39.46;96432.88;6161737;23;20436;-86
2021/05/08 08:51:36;;;;;;;4.63;3.40;;;;;;;17.45;39.57;96431.66;6160871;23;20425;-89
2021/05/08 08:54:02;;;;;;;4.47;2.93;;;;;;;17.22;39.70;96425.34;6160384;23;20408;-88
2021/05/08 08:56:33;;;;;;;3.60;2.83;;;;;;;16.95;40.10;96431.06;6159053;23;20488;-86
2021/05/08 08:59:03;;;;;;;3.40;3.03;;;;;;;16.95;39.95;96415.44;6159582;23;20417;-86
2021/05/08 09:01:29;;;;;;;8.57;4.00;;;;;;;16.93;40.12;96414.59;6160027;23;20432;-88
2021/05/08 09:03:56;;;;;;;7.47;2.97;;;;;;;16.79;40.78;96411.63;6162934;23;20512;-88
2021/05/08 09:06:23;;;;;;;4.03;2.73;;;;;;;17.21;38.64;96407.56;6163327;23;20425;-90
2021/05/08 09:08:52;;;;;;;4.83;2.90;;;;;;;16.96;39.08;96405.97;6163488;23;20401;-89
2021/05/08 09:11:20;;;;;;;3.10;2.60;;;;;;;16.75;40.37;96405.94;6161634;23;20436;-87
2021/05/08 09:13:46;;;;;;;4.00;3.10;;;;;;;16.61;39.99;96413.16;6159461;23;20408;-85
2021/05/08 09:16:13;;;;;;;4.80;2.60;;;;;;;16.67;40.22;96397.22;6158842;23;20786;-86
2021/05/08 09:18:40;;;;;;;3.47;3.10;;;;;;;15.91;41.05;96396.09;6160820;23;20379;-87
2021/05/08 09:21:08;;;;;;;5.37;2.83;;;;;;;15.60;42.14;96392.53;6163541;23;20479;-87
2021/05/08 09:23:36;;;;;;;5.80;2.80;;;;;;;15.92;42.19;96397.53;6160705;23;20455;-86
2021/05/08 09:26:05;;;;;;;2.97;2.63;;;;;;;16.13;41.23;96394.22;6158503;23;20421;-88
2021/05/08 09:28:33;;;;;;;4.97;2.47;;;;;;;16.12;40.72;96381.16;6158620;23;20405;-86
2021/05/08 09:31:00;;;;;;;5.73;2.80;;;;;;;16.02;40.51;96387.34;6158851;23;20408;-87
2021/05/08 09:33:28;;;;;;;2.83;2.57;;;;;;;16.31;40.66;96381.13;6160137;23;20415;-87
2021/05/08 09:36:05;;;;;;;3.23;2.60;;;;;;;16.16;40.33;96374.00;6160079;23;20436;-85
2021/05/08 09:38:34;;;;;;;5.00;3.17;;;;;;;16.07;41.23;96377.44;6166076;23;20378;-86
2021/05/08 09:41:00;;;;;;;2.93;2.60;;;;;;;16.43;40.41;96376.50;6160997;23;20923;-86
2021/05/08 09:43:27;;;;;;;2.57;2.37;;;;;;;16.69;39.96;96377.56;6166105;23;20419;-85
2021/05/08 09:45:53;;;;;;;4.23;3.40;;;;;;;16.40;39.91;96374.94;6182357;23;20421;-88
2021/05/08 09:48:21;;;;;;;4.53;3.10;;;;;;;16.43;40.38;96376.50;6182540;23;20405;-87
2021/05/08 09:50:48;;;;;;;8.03;2.73;;;;;;;16.53;40.70;96361.56;6175420;23;20832;-86
2021/05/08 09:53:31;;;;;;;4.10;2.70;;;;;;;16.71;39.99;96364.78;6162167;23;20433;-85
2021/05/08 09:55:58;;;;;;;6.27;3.40;;;;;;;16.68;39.25;96365.94;6162078;23;20429;-85
2021/05/08 09:58:25;;;;;;;4.43;2.73;;;;;;;16.13;40.55;96366.28;6162563;23;20432;-86
2021/05/08 10:00:52;;;;;;;4.33;3.00;;;;;;;16.14;40.68;96356.78;6162038;23;20405;-88
2021/05/08 10:03:20;;;;;;;3.70;2.87;;;;;;;16.26;39.79;96363.06;6162152;23;20554;-87
2021/05/08 10:06:07;;;;;;;3.63;2.77;;;;;;;16.26;40.50;96357.63;6163445;23;20439;-88
2021/05/08 10:08:33;;;;;;;2.37;2.00;;;;;;;16.68;40.68;96355.03;6163266;23;20821;-87
2021/05/08 10:11:02;;;;;;;3.60;2.80;;;;;;;16.98;40.08;96356.31;6161753;23;20703;-87
2021/05/08 10:13:31;;;;;;;3.87;3.00;;;;;;;17.36;39.08;96347.88;6163875;23;20448;-88
2021/05/08 10:15:59;;;;;;;3.03;2.10;;;;;;;17.42;38.96;96350.97;6166586;23;20420;-87
2021/05/08 10:18:26;;;;;;;2.90;2.07;;;;;;;17.57;37.43;96353.31;6180436;23;20416;-86
2021/05/08 10:20:54;;;;;;;3.77;2.67;;;;;;;17.07;37.92;96345.34;6180124;23;20468;-87
2021/05/08 10:23:25;;;;;;;2.73;2.50;;;;;;;16.85;37.24;96341.16;6173772;23;20456;-86
2021/05/08 10:25:52;;;;;;;1.67;1.50;;;;;;;16.65;37.51;96333.69;6178947;23;20459;-86
2021/05/08 10:28:19;;;;;;;4.30;1.77;;;;;;;16.89;37.39;96341.44;6174121;23;20397;-88
2021/05/08 10:30:47;;;;;;;3.77;2.27;;;;;;;17.24;36.76;96336.19;6164231;23;20459;-89
2021/05/08 10:33:15;;;;;;;2.23;2.00;;;;;;;17.24;38.41;96330.00;6165671;23;20408;-87
2021/05/08 10:35:43;;;;;;;2.20;2.00;;;;;;;17.47;37.96;96321.94;6161996;23;20553;-88
2021/05/08 10:38:19;;;;;;;6.77;2.20;;;;;;;17.69;36.63;96317.91;6163475;23;20393;-87
2021/05/08 10:40:59;;;;;;;1.90;1.70;;;;;;;17.63;34.61;96317.53;6165113;23;20389;-89
2021/05/08 10:43:47;;;;;;;2.43;1.80;;;;;;;17.70;34.36;96299.50;6162422;23;20463;-85
2021/05/08 10:46:15;;;;;;;1.60;1.47;;;;;;;17.86;34.68;96301.19;6160330;23;20475;-86
2021/05/08 10:49:12;;;;;;;2.40;1.63;;;;;;;18.09;35.97;96314.88;6161511;23;20400;-88
2021/05/08 10:51:58;;;;;;;3.17;2.00;;;;;;;18.48;34.13;96314.44;6160464;23;20408;-88
2021/05/08 10:54:55;;;;;;;2.33;1.63;;;;;;;18.20;33.83;96311.44;6162463;23;20436;-88
2021/05/08 10:57:24;;;;;;;1.47;1.37;;;;;;;18.19;34.36;96304.56;6162107;23;20405;-88
2021/05/08 11:00:26;;;;;;;3.13;1.80;;;;;;;18.46;33.40;96308.84;6161308;23;20879;-86
2021/05/08 11:03:03;;;;;;;3.90;2.20;;;;;;;18.64;32.58;96302.44;6162281;23;20547;-87
2021/05/08 11:05:32;;;;;;;2.37;1.53;;;;;;;18.12;33.47;96294.59;6161698;23;20434;-85
2021/05/08 11:07:58;;;;;;;1.90;1.77;;;;;;;18.35;33.50;96279.50;6159976;23;20444;-87
2021/05/08 11:10:37;;;;;;;3.53;1.70;;;;;;;18.38;32.95;96279.03;6161136;23;20421;-87
2021/05/08 11:13:08;;;;;;;5.03;2.03;;;;;;;18.68;33.89;96282.81;6160799;23;20467;-87
2021/05/08 11:16:08;;;;;;;2.00;1.33;;;;;;;18.75;32.81;96276.41;6160257;23;21022;-88
2021/05/08 11:18:38;;;;;;;1.87;1.70;;;;;;;18.51;32.90;96270.25;6161583;23;20428;-87
2021/05/08 11:21:38;;;;;;;2.80;1.63;;;;;;;18.67;33.38;96281.38;6160212;23;20467;-87
2021/05/08 11:24:05;;;;;;;1.60;1.50;;;;;;;18.84;33.13;96281.00;6159792;23;20799;-86
2021/05/08 11:26:34;;;;;;;1.50;1.40;;;;;;;18.71;33.33;96271.41;6159803;23;20508;-87
2021/05/08 11:29:01;;;;;;;1.73;1.40;;;;;;;18.86;33.30;96266.75;6159438;23;20862;-87
2021/05/08 11:31:29;;;;;;;2.27;1.70;;;;;;;19.03;32.46;96258.84;6162318;23;20728;-84
2021/05/08 11:34:07;;;;;;;2.70;1.50;;;;;;;19.22;32.01;96269.47;6161486;23;20782;-85
2021/05/08 11:36:43;;;;;;;1.73;1.40;;;;;;;19.29;30.80;96265.06;6161827;23;20455;-84